Time;durP1;ratioP1;P1;durP2;ratioP2;P2;SDS_P1;SDS_P2;PMS_P1;PMS_P2;Temp;Humidity;BMP_temperature;BMP_pressure;BME280_temperature;BME280_humidity;BME280_pressure;Samples;Min_cycle;Max_cycle;Signal;HPM_P1;HPM_P2
2024/04/19 00:00:50;;;;;;;11.30;6.45;;;;;;;6.35;61.48;99952.91;5235812;26;94509;-75
2024/04/19 00:03:15;;;;;;;11.85;6.68;;;;;;;6.33;61.70;99956.44;5234706;27;94520;-74
2024/04/19 00:05:41;;;;;;;12.88;7.47;;;;;;;6.32;61.69;99976.44;5233682;26;94399;-74
2024/04/19 00:08:27;;;;;;;21.60;8.68;;;;;;;6.29;61.49;99970.44;5210972;27;95006;-75
2024/04/19 00:10:55;;;;;;;13.32;8.45;;;;;;;6.07;61.29;99934.41;5234347;26;94621;-74
2024/04/19 00:13:21;;;;;;;13.95;7.97;;;;;;;6.02;61.39;99931.06;5236115;26;94429;-74
2024/04/19 00:15:47;;;;;;;12.35;7.95;;;;;;;6.19;61.44;99955.88;5234839;26;94456;-74
2024/04/19 00:18:12;;;;;;;11.25;6.43;;;;;;;6.22;61.58;99972.31;5235260;26;94400;-74
2024/04/19 00:20:41;;;;;;;13.93;6.75;;;;;;;6.20;61.19;99962.84;5234305;26;94400;-74
2024/04/19 00:23:06;;;;;;;13.35;7.10;;;;;;;6.04;61.55;99941.44;5236135;27;94419;-75
2024/04/19 00:25:36;;;;;;;9.63;5.78;;;;;;;6.18;61.35;99956.78;5205292;27;95148;-74
2024/04/19 00:28:02;;;;;;;11.48;6.47;;;;;;;6.17;60.86;99966.34;5205995;27;94466;-74
2024/04/19 00:30:27;;;;;;;9.35;5.35;;;;;;;6.01;61.13;99949.31;5235437;27;94430;-75
2024/04/19 00:32:53;;;;;;;8.40;4.78;;;;;;;6.01;61.01;99941.50;5234686;27;94630;-75
2024/04/19 00:35:21;;;;;;;7.65;4.53;;;;;;;6.11;61.17;99958.69;5198330;27;95813;-75
2024/04/19 00:37:46;;;;;;;7.25;4.40;;;;;;;6.08;61.04;99945.72;5219457;27;94438;-74
2024/04/19 00:40:30;;;;;;;12.05;5.25;;;;;;;6.08;61.14;99953.53;5233429;27;94668;-74
2024/04/19 00:42:57;;;;;;;8.55;4.95;;;;;;;6.02;61.09;99945.81;5205704;27;94465;-74
2024/04/19 00:45:25;;;;;;;7.88;4.60;;;;;;;6.09;61.08;99953.47;5203895;27;95148;-74
2024/04/19 00:47:51;;;;;;;11.70;5.28;;;;;;;5.82;61.28;99907.16;5234058;27;94390;-75
2024/04/19 00:50:16;;;;;;;8.65;4.93;;;;;;;6.06;60.98;99934.44;5234386;27;94350;-74
2024/04/19 00:52:43;;;;;;;9.02;4.38;;;;;;;6.10;61.12;99936.09;5235975;26;93449;-74
2024/04/19 00:55:08;;;;;;;8.80;4.57;;;;;;;5.93;61.06;99905.19;5199182;27;97727;-75
2024/04/19 00:57:34;;;;;;;9.05;5.80;;;;;;;6.15;60.74;99939.47;5232703;27;94545;-74
2024/04/19 01:00:01;;;;;;;8.95;4.70;;;;;;;6.15;60.79;99928.19;5233863;27;94480;-77
2024/04/19 01:02:27;;;;;;;8.93;3.90;;;;;;;5.91;60.54;99886.13;5232525;26;93485;-74
2024/04/19 01:05:12;;;;;;;8.85;4.55;;;;;;;6.07;60.54;99929.19;5204512;27;94382;-75
2024/04/19 01:07:38;;;;;;;10.02;4.55;;;;;;;5.98;60.67;99918.97;5173323;27;97701;-74
2024/04/19 01:10:04;;;;;;;9.05;4.13;;;;;;;6.03;60.40;99911.06;5200026;27;94500;-74
2024/04/19 01:12:29;;;;;;;7.30;4.03;;;;;;;5.84;60.43;99881.91;5205649;27;94475;-74
2024/04/19 01:14:54;;;;;;;7.70;4.60;;;;;;;6.02;60.66;99906.72;5228145;27;94282;-75
2024/04/19 01:17:20;;;;;;;8.43;4.03;;;;;;;5.81;60.55;99880.22;5235383;27;94354;-76
2024/04/19 01:19:45;;;;;;;7.40;4.03;;;;;;;5.84;60.54;99890.56;5227649;27;94400;-75
2024/04/19 01:22:31;;;;;;;9.02;5.45;;;;;;;6.04;60.26;99916.22;5234285;27;94420;-74
2024/04/19 01:24:57;;;;;;;7.35;4.65;;;;;;;5.90;60.21;99887.88;5234141;27;94296;-75
2024/04/19 01:27:22;;;;;;;9.77;4.50;;;;;;;5.99;60.24;99907.69;5200314;27;97979;-74
2024/04/19 01:29:48;;;;;;;7.13;4.13;;;;;;;5.72;60.29;99869.16;5232429;27;94531;-74
2024/04/19 01:32:13;;;;;;;7.78;4.70;;;;;;;5.68;60.13;99877.03;5222834;27;94291;-74
2024/04/19 01:34:39;;;;;;;7.82;4.15;;;;;;;5.88;60.17;99896.59;5198525;27;97018;-74
2024/04/19 01:37:04;;;;;;;8.98;4.30;;;;;;;5.97;59.78;99911.22;5233262;27;94416;-74
2024/04/19 01:39:31;;;;;;;8.95;4.00;;;;;;;5.85;59.83;99884.50;5233447;27;94295;-74
2024/04/19 01:41:56;;;;;;;7.00;3.97;;;;;;;5.82;59.84;99871.53;5233474;27;94582;-74
2024/04/19 01:44:22;;;;;;;7.95;4.32;;;;;;;5.75;59.77;99864.72;5233083;27;94341;-74
2024/04/19 01:46:47;;;;;;;6.78;4.00;;;;;;;5.90;59.47;99890.47;5233357;27;94883;-75
2024/04/19 01:49:13;;;;;;;7.63;4.07;;;;;;;5.97;59.42;99911.22;5222850;26;94226;-74
2024/04/19 01:51:38;;;;;;;11.20;5.03;;;;;;;5.53;59.18;99827.88;5205536;27;94406;-74
2024/04/19 01:54:04;;;;;;;9.50;4.53;;;;;;;5.90;59.06;99881.78;5233693;26;94206;-74
2024/04/19 01:56:29;;;;;;;7.82;4.40;;;;;;;5.88;58.85;99876.59;5232737;27;94350;-74
2024/04/19 01:58:55;;;;;;;11.02;4.30;;;;;;;5.82;58.69;99866.31;5204510;27;94339;-74
2024/04/19 02:01:21;;;;;;;9.52;4.22;;;;;;;5.94;58.77;99887.81;5233649;27;94431;-75
2024/04/19 02:03:46;;;;;;;12.07;4.53;;;;;;;5.90;58.65;99873.94;5232316;27;94328;-74
2024/04/19 02:06:14;;;;;;;7.63;3.35;;;;;;;5.80;58.46;99867.25;5205935;27;94457;-74
2024/04/19 02:08:40;;;;;;;7.30;4.43;;;;;;;5.71;58.60;99838.81;5203618;27;94397;-75
2024/04/19 02:11:06;;;;;;;9.02;3.83;;;;;;;5.96;58.26;99873.00;5235854;26;94258;-76
2024/04/19 02:13:31;;;;;;;8.93;3.53;;;;;;;5.99;58.24;99868.59;5236750;27;94367;-75
2024/04/19 02:16:00;;;;;;;7.30;4.10;;;;;;;6.02;58.08;99878.94;5234556;27;94426;-75
2024/04/19 02:18:26;;;;;;;4.50;3.08;;;;;;;5.87;57.91;99848.81;5214630;27;94389;-76
2024/04/19 02:20:51;;;;;;;7.40;3.20;;;;;;;5.97;58.12;99862.56;5231406;26;94570;-75
2024/04/19 02:23:39;;;;;;;7.07;3.05;;;;;;;5.97;57.90;99852.13;5201449;27;95366;-75
2024/04/19 02:26:06;;;;;;;5.65;3.38;;;;;;;5.98;58.30;99851.22;5206595;27;98047;-75
2024/04/19 02:31:20;;;;;;;7.35;3.25;;;;;;;6.00;58.18;99854.66;5211378;26;94390;-75
2024/04/19 02:33:46;;;;;;;5.38;3.20;;;;;;;5.83;58.05;99821.16;5236205;27;94672;-75
2024/04/19 02:36:12;;;;;;;6.38;4.00;;;;;;;6.04;57.80;99853.69;5236586;26;94267;-75
2024/04/19 02:38:38;;;;;;;5.57;3.20;;;;;;;6.01;57.81;99840.75;5201384;27;94322;-75
2024/04/19 02:41:04;;;;;;;10.75;3.83;;;;;;;5.95;58.05;99840.03;5199593;27;94356;-75
2024/04/19 02:43:29;;;;;;;5.95;3.00;;;;;;;5.96;57.88;99834.75;5200902;27;94416;-76
2024/04/19 02:46:03;;;;;;;9.80;3.63;;;;;;;5.96;58.06;99833.91;5207252;27;94423;-74
2024/04/19 02:48:28;;;;;;;6.63;3.42;;;;;;;5.89;57.78;99818.41;5184214;27;94285;-75
2024/04/19 02:50:54;;;;;;;6.63;3.85;;;;;;;5.89;57.64;99805.38;5207105;27;94432;-74
2024/04/19 02:53:19;;;;;;;7.22;3.30;;;;;;;5.88;58.02;99805.44;5200329;27;94274;-79
2024/04/19 02:55:45;;;;;;;6.68;3.40;;;;;;;6.12;57.72;99830.94;5187758;27;97297;-75
2024/04/19 02:58:10;;;;;;;5.30;3.35;;;;;;;6.18;57.74;99832.53;5233117;27;94432;-74
2024/04/19 03:00:42;;;;;;;6.18;3.45;;;;;;;6.22;57.70;99834.16;5175194;27;94399;-75
2024/04/19 03:03:07;;;;;;;7.88;3.63;;;;;;;5.97;57.72;99791.34;5224648;27;97395;-77
2024/04/19 03:05:32;;;;;;;6.20;3.35;;;;;;;5.98;57.49;99788.69;5210607;27;97986;-75
2024/04/19 03:07:58;;;;;;;5.28;3.10;;;;;;;5.91;57.53;99779.31;5201267;27;94288;-75
2024/04/19 03:10:24;;;;;;;7.50;3.78;;;;;;;6.16;57.79;99829.09;5230998;27;94461;-75
2024/04/19 03:12:50;;;;;;;7.00;3.03;;;;;;;5.95;57.82;99807.00;5201250;27;97567;-75
2024/04/19 03:15:15;;;;;;;4.60;2.63;;;;;;;5.87;57.65;99782.84;5199071;27;94474;-75
2024/04/19 03:17:42;;;;;;;5.38;2.47;;;;;;;6.17;57.53;99823.00;5235186;26;94389;-78
2024/04/19 03:20:07;;;;;;;5.40;3.00;;;;;;;6.14;57.33;99812.66;5235702;26;94443;-74
2024/04/19 03:22:33;;;;;;;22.40;5.25;;;;;;;5.99;56.90;99785.22;5211289;27;94293;-75
2024/04/19 03:24:58;;;;;;;5.53;2.92;;;;;;;6.08;57.14;99807.59;5200546;27;95883;-75
2024/04/19 03:27:24;;;;;;;9.73;3.65;;;;;;;6.13;57.18;99811.78;5233461;27;94311;-75
2024/04/19 03:29:56;;;;;;;7.25;2.50;;;;;;;6.09;56.98;99804.09;5234371;26;94516;-75
2024/04/19 03:32:25;;;;;;;6.43;3.83;;;;;;;5.85;57.05;99762.06;5234048;27;94302;-75
2024/04/19 03:34:51;;;;;;;8.43;3.72;;;;;;;6.04;57.40;99788.56;5205907;27;96544;-75
2024/04/19 03:37:17;;;;;;;6.30;3.00;;;;;;;5.96;57.07;99751.41;5206523;27;94442;-75
2024/04/19 03:39:42;;;;;;;5.32;2.72;;;;;;;6.19;57.15;99778.66;5206368;26;94517;-75
2024/04/19 03:42:11;;;;;;;8.02;2.97;;;;;;;6.06;57.19;99752.06;5234436;27;94351;-76
2024/04/19 03:47:29;;;;;;;7.93;2.90;;;;;;;6.34;57.14;99780.88;5234881;27;94442;-74
2024/04/19 03:49:55;;;;;;;3.67;2.90;;;;;;;6.15;57.42;99749.22;5234108;26;94559;-75
2024/04/19 03:52:21;;;;;;;4.78;3.05;;;;;;;6.13;57.03;99730.13;5232574;27;93997;-74
2024/04/19 03:54:46;;;;;;;12.52;7.05;;;;;;;6.40;57.11;99762.50;5235690;27;95145;-74
2024/04/19 03:57:11;;;;;;;7.82;4.35;;;;;;;6.35;57.16;99749.56;5196257;27;94475;-75
2024/04/19 03:59:38;;;;;;;6.10;3.33;;;;;;;6.35;57.26;99751.31;5234261;27;94530;-75
2024/04/19 04:02:13;;;;;;;4.88;2.85;;;;;;;6.58;57.09;99771.56;5180707;26;96223;-75
2024/04/19 04:04:52;;;;;;;7.38;3.53;;;;;;;6.61;57.16;99776.72;5223895;27;94391;-74
2024/04/19 04:07:18;;;;;;;5.63;2.72;;;;;;;6.72;57.01;99785.13;5229150;27;94558;-73
2024/04/19 04:09:43;;;;;;;7.22;3.30;;;;;;;6.70;57.41;99780.81;5233666;26;94615;-73
2024/04/19 04:12:09;;;;;;;4.88;2.33;;;;;;;6.74;57.87;99774.63;5193180;27;95874;-73
2024/04/19 04:14:36;;;;;;;6.90;3.28;;;;;;;6.69;58.11;99758.22;5223827;27;94469;-74
2024/04/19 04:17:01;;;;;;;6.05;2.35;;;;;;;6.67;58.37;99762.66;5232954;27;94499;-73
2024/04/19 04:19:27;;;;;;;5.72;3.20;;;;;;;6.63;58.79;99777.50;5224132;27;94510;-74
2024/04/19 04:21:52;;;;;;;3.53;2.47;;;;;;;6.63;58.54;99767.06;5201274;27;97689;-74
2024/04/19 04:24:18;;;;;;;7.47;2.78;;;;;;;6.75;58.56;99773.75;5233611;27;94341;-74
2024/04/19 04:26:43;;;;;;;4.80;2.65;;;;;;;6.68;58.40;99762.59;5231879;26;94733;-73
2024/04/19 04:29:09;;;;;;;4.63;3.05;;;;;;;6.63;58.58;99741.00;5227125;26;95561;-74
2024/04/19 04:31:34;;;;;;;7.65;3.50;;;;;;;6.56;59.03;99744.69;5227761;27;94270;-71
2024/04/19 04:34:00;;;;;;;5.53;2.78;;;;;;;6.63;59.22;99737.53;5227730;26;95072;-73
2024/04/19 04:36:25;;;;;;;6.50;2.65;;;;;;;6.70;59.04;99731.28;5198098;27;94507;-73
2024/04/19 04:38:51;;;;;;;5.70;2.83;;;;;;;6.99;59.03;99769.59;5199604;27;94745;-77
2024/04/19 04:41:17;;;;;;;5.38;3.10;;;;;;;6.99;59.20;99772.19;5228137;27;94485;-72
2024/04/19 04:43:42;;;;;;;6.80;3.13;;;;;;;7.16;59.17;99766.50;5200551;27;97648;-72
2024/04/19 04:46:08;;;;;;;4.95;2.88;;;;;;;6.97;59.28;99730.47;5225851;27;94851;-72
2024/04/19 04:48:33;;;;;;;7.43;3.38;;;;;;;7.17;59.13;99734.28;5228309;26;93661;-72
2024/04/19 04:50:59;;;;;;;9.52;3.25;;;;;;;7.44;58.87;99754.31;5169744;27;95216;-72
2024/04/19 04:53:28;;;;;;;6.03;2.70;;;;;;;7.68;58.75;99768.41;5227466;27;94606;-72
2024/04/19 04:55:54;;;;;;;6.28;2.80;;;;;;;7.59;58.41;99732.13;5227252;27;94576;-72
2024/04/19 04:58:19;;;;;;;5.45;3.17;;;;;;;7.79;58.21;99734.09;5228860;27;94659;-71
2024/04/19 05:00:47;;;;;;;7.68;3.05;;;;;;;8.12;58.18;99763.53;5218527;27;94497;-74
2024/04/19 05:03:12;;;;;;;6.22;2.90;;;;;;;8.45;57.43;99752.03;5229348;27;96210;-75
2024/04/19 05:05:38;;;;;;;7.43;3.28;;;;;;;8.66;56.81;99753.03;5222854;27;94566;-74
2024/04/19 05:08:04;;;;;;;4.78;3.20;;;;;;;8.63;56.69;99746.16;5223480;27;94574;-71
2024/04/19 05:10:29;;;;;;;7.10;2.95;;;;;;;8.70;56.58;99720.63;5233595;27;94657;-71
2024/04/19 05:12:56;;;;;;;9.85;3.60;;;;;;;8.92;56.21;99747.72;5203715;27;95682;-71
2024/04/19 05:15:22;;;;;;;7.88;3.20;;;;;;;9.21;55.27;99712.59;5228604;26;94660;-73
2024/04/19 05:17:47;;;;;;;5.05;3.47;;;;;;;10.12;53.48;99732.59;5220607;27;93587;-72
2024/04/19 05:20:13;;;;;;;6.22;2.55;;;;;;;10.15;53.40;99722.84;5234400;27;94677;-72
2024/04/19 05:22:38;;;;;;;9.00;3.15;;;;;;;13.16;47.50;99712.91;5234282;27;94650;-73
2024/04/19 05:25:08;;;;;;;5.03;2.40;;;;;;;14.78;43.45;99694.84;5189594;27;95012;-71
2024/04/19 05:27:34;;;;;;;5.97;2.95;;;;;;;16.84;39.92;99693.72;5232536;27;94793;-72
2024/04/19 05:29:59;;;;;;;5.10;2.45;;;;;;;17.41;38.64;99700.28;5232569;26;94716;-71
2024/04/19 05:32:25;;;;;;;8.27;3.03;;;;;;;16.02;39.77;99684.25;5234479;26;94697;-72
2024/04/19 05:34:50;;;;;;;7.00;3.20;;;;;;;18.37;36.30;99691.44;5232670;27;94724;-72
2024/04/19 05:37:16;;;;;;;3.22;2.30;;;;;;;20.27;32.83;99689.53;5233897;27;94621;-72
2024/04/19 05:39:41;;;;;;;5.63;2.83;;;;;;;20.41;32.59;99705.19;5232739;26;94811;-72
2024/04/19 05:42:08;;;;;;;4.70;2.67;;;;;;;22.77;29.86;99689.41;5235182;27;95364;-71
2024/04/19 05:44:34;;;;;;;5.65;3.38;;;;;;;24.30;27.17;99668.19;5233610;26;95327;-70
2024/04/19 05:46:59;;;;;;;3.80;2.15;;;;;;;26.18;25.39;99682.41;5211434;27;95050;-76
2024/04/19 05:49:25;;;;;;;3.42;2.58;;;;;;;26.43;25.61;99650.09;5202795;27;96892;-76
2024/04/19 05:51:50;;;;;;;4.97;2.85;;;;;;;28.01;23.02;99655.50;5206572;27;97639;-78
2024/04/19 05:54:16;;;;;;;7.53;2.67;;;;;;;26.32;23.58;99653.97;5226283;27;94666;-78
2024/04/19 05:56:41;;;;;;;6.07;2.15;;;;;;;28.64;21.99;99667.75;5231916;27;94641;-78
2024/04/19 05:59:07;;;;;;;8.50;2.63;;;;;;;23.65;25.35;99668.44;5234459;27;94620;-77
2024/04/19 06:01:32;;;;;;;6.78;2.92;;;;;;;26.03;23.42;99629.47;5232500;27;94703;-80
2024/04/19 06:03:58;;;;;;;5.72;2.80;;;;;;;28.37;21.99;99659.22;5209946;27;95256;-78
2024/04/19 06:06:23;;;;;;;11.85;3.85;;;;;;;28.81;21.19;99665.72;5232232;27;94628;-78
2024/04/19 06:08:50;;;;;;;4.53;2.67;;;;;;;27.99;21.29;99655.69;5232017;27;94791;-78
2024/04/19 06:11:16;;;;;;;5.00;3.85;;;;;;;26.60;22.84;99635.63;5234407;27;95067;-78
2024/04/19 06:13:42;;;;;;;5.85;2.95;;;;;;;26.85;22.29;99646.34;5232765;27;94657;-78
2024/04/19 06:16:10;;;;;;;4.10;2.65;;;;;;;22.24;26.33;99659.72;5235670;26;95028;-78
2024/04/19 06:18:36;;;;;;;5.00;3.00;;;;;;;19.96;30.93;99657.47;5211375;27;94636;-77
2024/04/19 06:21:02;;;;;;;5.97;3.78;;;;;;;23.98;25.94;99641.13;5228995;26;96372;-77
2024/04/19 06:23:28;;;;;;;6.15;3.78;;;;;;;23.28;26.10;99607.78;5222973;27;94632;-77
2024/04/19 06:25:55;;;;;;;4.95;3.03;;;;;;;17.98;33.02;99645.72;5225941;26;94642;-75
2024/04/19 06:28:21;;;;;;;13.45;3.20;;;;;;;15.92;37.12;99659.38;5244536;26;96468;-74
2024/04/19 06:30:47;;;;;;;5.63;2.92;;;;;;;14.04;39.80;99626.13;5223876;26;96522;-77
2024/04/19 06:33:12;;;;;;;3.63;2.63;;;;;;;13.59;40.56;99629.69;5229789;27;94673;-81
2024/04/19 06:35:38;;;;;;;4.25;2.75;;;;;;;13.52;40.77;99642.34;5235714;26;94674;-77
2024/04/19 06:38:04;;;;;;;3.65;2.53;;;;;;;12.25;44.01;99659.75;5222524;26;94720;-76
2024/04/19 06:40:30;;;;;;;6.25;3.47;;;;;;;11.95;44.25;99620.06;5223174;27;94646;-76
2024/04/19 06:42:55;;;;;;;4.32;2.50;;;;;;;11.57;45.04;99593.88;5223385;27;94610;-77
2024/04/19 06:45:20;;;;;;;5.57;3.13;;;;;;;11.65;45.74;99622.41;5234381;26;94724;-76
2024/04/19 06:47:46;;;;;;;7.63;3.10;;;;;;;12.27;44.89;99638.59;5224777;27;95493;-75
2024/04/19 06:50:12;;;;;;;6.13;3.45;;;;;;;12.21;44.87;99600.31;5228055;27;94663;-75
2024/04/19 06:52:37;;;;;;;10.75;3.80;;;;;;;13.93;41.99;99623.28;5200639;27;94743;-77
2024/04/19 06:55:03;;;;;;;9.95;4.35;;;;;;;15.07;40.12;99577.56;5195896;27;95275;-76
2024/04/19 06:57:28;;;;;;;5.32;2.78;;;;;;;17.41;35.99;99613.56;5198196;26;93559;-75
2024/04/19 06:59:54;;;;;;;9.88;3.75;;;;;;;16.00;37.21;99590.88;5236971;26;94691;-74
2024/04/19 07:02:19;;;;;;;8.10;3.22;;;;;;;14.99;38.98;99597.50;5248359;26;94685;-76
2024/04/19 07:04:45;;;;;;;4.90;3.47;;;;;;;14.42;40.47;99620.34;5240129;26;94654;-74
2024/04/19 07:07:10;;;;;;;6.43;3.50;;;;;;;13.50;42.19;99614.38;5225270;26;94672;-75
2024/04/19 07:09:36;;;;;;;7.72;3.00;;;;;;;13.51;42.46;99613.44;5232862;26;94621;-74
2024/04/19 07:12:02;;;;;;;5.50;3.00;;;;;;;12.88;42.48;99575.63;5222276;26;94663;-74
2024/04/19 07:14:27;;;;;;;4.40;2.90;;;;;;;12.84;42.73;99570.63;5217295;27;94730;-74
2024/04/19 07:16:53;;;;;;;6.07;3.00;;;;;;;12.81;43.21;99576.06;5251728;26;93674;-80
2024/04/19 07:19:18;;;;;;;6.55;3.53;;;;;;;12.68;43.64;99610.97;5213316;27;94697;-75
2024/04/19 07:21:44;;;;;;;5.15;3.22;;;;;;;12.47;43.62;99591.03;5221555;26;94766;-74
2024/04/19 07:24:09;;;;;;;6.70;3.45;;;;;;;12.39;43.83;99551.09;5236420;26;93631;-74
2024/04/19 07:26:37;;;;;;;4.90;3.63;;;;;;;12.37;44.24;99617.00;5226193;26;94615;-74
2024/04/19 07:29:04;;;;;;;7.60;3.70;;;;;;;11.93;45.04;99614.03;5228929;26;94601;-77
2024/04/19 07:31:29;;;;;;;8.65;4.30;;;;;;;11.40;46.82;99596.47;5223692;26;94657;-74
2024/04/19 07:33:55;;;;;;;8.18;4.00;;;;;;;10.99;48.81;99600.16;5215208;26;94641;-74
2024/04/19 07:36:20;;;;;;;4.65;3.33;;;;;;;10.79;50.02;99569.63;5242686;26;94633;-76
2024/04/19 07:38:46;;;;;;;4.40;3.20;;;;;;;11.09;49.65;99609.31;5228932;26;95173;-75
2024/04/19 07:41:11;;;;;;;4.75;2.97;;;;;;;11.09;49.29;99555.94;5237574;26;94755;-74
2024/04/19 07:43:38;;;;;;;5.05;3.45;;;;;;;11.35;49.46;99559.94;5247140;26;94581;-74
2024/04/19 07:46:03;;;;;;;5.13;3.05;;;;;;;11.57;49.50;99589.47;5221967;26;97181;-75
2024/04/19 07:48:29;;;;;;;4.57;3.15;;;;;;;11.39;49.72;99584.28;5228261;27;95188;-74
2024/04/19 07:50:54;;;;;;;6.47;3.42;;;;;;;11.55;49.50;99572.94;5229279;27;96868;-73
2024/04/19 07:53:22;;;;;;;6.88;4.20;;;;;;;11.56;49.33;99547.50;5230237;26;94575;-74
2024/04/19 07:55:47;;;;;;;6.30;4.00;;;;;;;11.81;49.01;99572.53;5205501;26;94653;-74
2024/04/19 07:58:13;;;;;;;6.28;3.25;;;;;;;12.13;48.84;99570.91;5206041;27;94711;-73
2024/04/19 08:00:40;;;;;;;4.60;2.97;;;;;;;12.11;48.34;99535.94;5229861;27;94569;-74
2024/04/19 08:03:06;;;;;;;7.82;3.17;;;;;;;12.44;47.63;99565.72;5224181;26;93542;-74
2024/04/19 08:05:32;;;;;;;4.43;2.92;;;;;;;13.09;46.38;99559.56;5201186;27;94520;-73
2024/04/19 08:07:58;;;;;;;6.90;3.13;;;;;;;14.20;43.82;99520.50;5231702;26;94716;-78
2024/04/19 08:10:27;;;;;;;6.22;3.58;;;;;;;14.31;42.62;99540.97;5219343;27;94699;-74
2024/04/19 08:12:53;;;;;;;7.25;3.90;;;;;;;15.21;42.04;99542.28;5205600;27;93843;-73
2024/04/19 08:15:19;;;;;;;8.18;4.35;;;;;;;15.65;40.25;99509.41;5229229;26;93591;-80
2024/04/19 08:17:44;;;;;;;3.90;2.85;;;;;;;18.65;35.33;99488.16;5207982;27;97490;-74
2024/04/19 08:20:10;;;;;;;5.63;3.55;;;;;;;21.78;30.77;99517.84;5220693;27;94609;-76
2024/04/19 08:22:36;;;;;;;8.77;3.10;;;;;;;19.21;32.86;99514.63;5229411;26;94862;-75
2024/04/19 08:25:01;;;;;;;4.50;2.78;;;;;;;21.96;29.84;99488.56;5229401;27;94836;-75
2024/04/19 08:27:27;;;;;;;4.93;3.30;;;;;;;23.87;27.09;99513.56;5222255;26;94657;-74
2024/04/19 08:29:53;;;;;;;8.05;3.15;;;;;;;23.91;26.87;99504.22;5212683;26;94956;-75
2024/04/19 08:32:19;;;;;;;6.05;3.08;;;;;;;20.21;30.82;99488.38;5227422;26;93543;-75
2024/04/19 08:34:54;;;;;;;6.95;3.55;;;;;;;21.00;30.07;99499.16;5198652;27;95395;-75
2024/04/19 08:37:20;;;;;;;5.20;3.10;;;;;;;20.52;30.50;99486.56;5158298;27;96219;-75
2024/04/19 08:39:46;;;;;;;4.82;3.65;;;;;;;17.93;33.94;99493.88;5232898;26;94648;-72
2024/04/19 08:42:13;;;;;;;6.38;2.95;;;;;;;17.54;35.19;99487.94;5228117;27;94914;-74
2024/04/19 08:44:44;;;;;;;6.38;3.20;;;;;;;17.00;35.08;99476.06;5228206;26;95346;-78
2024/04/19 08:47:15;;;;;;;5.47;3.65;;;;;;;17.76;34.88;99488.00;5227766;27;97746;-72
2024/04/19 08:49:43;;;;;;;4.53;2.90;;;;;;;17.27;35.13;99482.94;5203011;27;94717;-72
2024/04/19 08:52:09;;;;;;;7.10;3.45;;;;;;;17.93;34.13;99454.03;5200134;27;94566;-75
2024/04/19 08:54:36;;;;;;;7.38;3.15;;;;;;;22.24;29.35;99454.72;5230170;26;94727;-74
2024/04/19 08:57:02;;;;;;;7.28;3.33;;;;;;;22.26;28.27;99452.75;5229731;27;94740;-74
2024/04/19 08:59:31;;;;;;;4.47;3.25;;;;;;;22.95;26.92;99424.63;5232590;27;94625;-83
2024/04/19 09:01:57;;;;;;;7.30;3.40;;;;;;;24.15;26.11;99423.13;5205015;27;94746;-74
2024/04/19 09:04:22;;;;;;;3.97;3.17;;;;;;;21.82;27.84;99441.78;5225112;27;94641;-76
2024/04/19 09:06:48;;;;;;;7.15;3.60;;;;;;;21.19;29.22;99436.94;5203166;27;94687;-75
2024/04/19 09:09:15;;;;;;;4.55;3.17;;;;;;;20.97;28.67;99424.75;5235088;26;94668;-77
2024/04/19 09:11:41;;;;;;;4.45;3.20;;;;;;;22.80;27.71;99426.94;5233449;27;94717;-78
2024/04/19 09:14:07;;;;;;;4.45;3.35;;;;;;;20.80;28.66;99428.13;5233475;26;94597;-73
2024/04/19 09:16:33;;;;;;;4.60;2.80;;;;;;;18.80;31.27;99435.59;5232482;27;94716;-76
2024/04/19 09:18:58;;;;;;;4.63;2.72;;;;;;;18.20;32.51;99421.78;5224674;26;96425;-78
2024/04/19 09:21:26;;;;;;;4.47;3.05;;;;;;;17.30;33.40;99381.91;5202529;27;95189;-76
2024/04/19 09:23:51;;;;;;;8.00;2.92;;;;;;;17.24;34.21;99423.00;5203423;27;97779;-75
2024/04/19 09:26:18;;;;;;;5.38;3.22;;;;;;;18.03;33.82;99412.50;5200879;26;98087;-75
2024/04/19 09:28:43;;;;;;;6.07;3.55;;;;;;;18.27;32.24;99415.88;5229825;27;95239;-79
2024/04/19 09:31:09;;;;;;;5.40;3.42;;;;;;;17.19;33.19;99401.28;5225421;27;94754;-76
2024/04/19 09:33:36;;;;;;;6.88;3.80;;;;;;;16.32;34.53;99411.25;5229271;27;94765;-75
2024/04/19 09:36:03;;;;;;;4.72;3.35;;;;;;;16.68;34.59;99386.50;5232044;26;94683;-76
2024/04/19 09:38:29;;;;;;;3.88;3.35;;;;;;;17.39;33.49;99365.28;5195210;27;94735;-78
2024/04/19 09:40:54;;;;;;;7.80;3.63;;;;;;;17.30;33.21;99390.72;5229545;27;94672;-76
2024/04/19 09:43:23;;;;;;;4.60;3.33;;;;;;;16.80;33.83;99360.09;5202170;27;96971;-75
2024/04/19 09:45:55;;;;;;;4.63;3.70;;;;;;;15.94;35.14;99385.72;5199521;27;96100;-77
2024/04/19 09:48:21;;;;;;;5.35;3.30;;;;;;;17.65;33.34;99380.00;5228731;27;94626;-81
2024/04/19 09:50:49;;;;;;;4.65;3.22;;;;;;;17.63;32.97;99371.34;5173523;27;94629;-76
2024/04/19 09:53:23;;;;;;;5.45;3.15;;;;;;;18.76;31.66;99374.72;5226885;27;94836;-76
2024/04/19 09:55:49;;;;;;;6.43;2.88;;;;;;;17.99;32.36;99342.03;5173179;27;95831;-76
2024/04/19 09:58:15;;;;;;;6.05;3.35;;;;;;;17.27;32.94;99329.94;5225030;27;94743;-77
2024/04/19 10:00:40;;;;;;;6.78;3.40;;;;;;;17.06;32.95;99360.78;5202475;27;94710;-76
2024/04/19 10:03:09;;;;;;;8.20;3.30;;;;;;;16.11;33.61;99328.06;5223773;27;95011;-75
2024/04/19 10:05:35;;;;;;;7.80;3.83;;;;;;;15.35;34.79;99336.00;5223952;27;94607;-73
2024/04/19 10:08:02;;;;;;;6.13;2.90;;;;;;;17.06;33.45;99350.16;5200546;27;95829;-74
2024/04/19 10:10:27;;;;;;;6.88;3.63;;;;;;;17.56;32.73;99316.22;5227900;27;94645;-74
2024/04/19 10:12:53;;;;;;;10.13;4.40;;;;;;;17.29;32.74;99321.88;5224985;27;94568;-78
2024/04/19 10:15:20;;;;;;;5.70;3.40;;;;;;;17.45;33.12;99310.91;5223895;26;94812;-75
2024/04/19 10:17:46;;;;;;;6.00;3.38;;;;;;;17.60;32.48;99312.38;5224612;26;94741;-80
2024/04/19 10:20:13;;;;;;;5.90;3.17;;;;;;;17.86;31.95;99315.66;5228664;27;96059;-74
2024/04/19 10:22:44;;;;;;;6.78;2.97;;;;;;;17.12;33.25;99315.22;5227633;27;94682;-78
2024/04/19 10:25:10;;;;;;;;;;;;;;;16.93;33.15;99314.00;5222105;27;93377;-74
2024/04/19 10:27:35;;;;;;;4.05;3.22;;;;;;;16.15;34.48;99308.34;5221705;26;94829;-74
2024/04/19 10:30:04;;;;;;;6.88;3.38;;;;;;;16.26;34.35;99297.78;5229789;27;94978;-76
2024/04/19 10:32:30;;;;;;;6.35;3.25;;;;;;;15.54;35.22;99277.38;5229954;26;94776;-74
2024/04/19 10:34:55;;;;;;;7.97;3.35;;;;;;;15.30;35.35;99294.97;5227073;26;95396;-74
2024/04/19 10:37:21;;;;;;;9.15;3.35;;;;;;;15.30;35.38;99256.16;5228793;26;94836;-74
2024/04/19 10:39:47;;;;;;;5.00;2.97;;;;;;;15.71;35.21;99267.44;5231305;27;94716;-75
2024/04/19 10:42:12;;;;;;;7.22;3.67;;;;;;;16.15;33.73;99258.06;5220733;27;94722;-74
2024/04/19 10:44:41;;;;;;;5.22;3.10;;;;;;;16.11;33.46;99278.59;5230912;26;96302;-74
2024/04/19 10:47:07;;;;;;;4.22;2.53;;;;;;;16.04;33.71;99269.44;5231997;26;94785;-73
2024/04/19 10:49:32;;;;;;;4.68;2.97;;;;;;;15.83;34.30;99271.84;5227779;27;94704;-73
2024/04/19 10:51:59;;;;;;;5.15;3.10;;;;;;;15.72;34.88;99269.97;5224799;27;94700;-73
2024/04/19 10:54:25;;;;;;;6.07;3.40;;;;;;;14.76;36.29;99290.72;5221296;27;94704;-86
2024/04/19 10:56:51;;;;;;;3.92;2.15;;;;;;;14.26;36.05;99300.19;5202793;27;94664;-74
2024/04/19 10:59:17;;;;;;;4.28;2.25;;;;;;;14.39;36.84;99284.38;5233136;26;94634;-75
2024/04/19 11:01:45;;;;;;;3.40;2.40;;;;;;;15.10;36.15;99288.44;5233536;26;94781;-75
2024/04/19 11:04:12;;;;;;;7.18;2.70;;;;;;;15.09;36.74;99250.56;5230876;26;94751;-74
2024/04/19 11:06:38;;;;;;;4.40;2.45;;;;;;;15.69;35.97;99246.38;5232750;26;94746;-73
2024/04/19 11:09:03;;;;;;;4.10;2.40;;;;;;;16.58;35.41;99257.47;5197569;27;94981;-74
2024/04/19 11:11:37;;;;;;;3.40;2.17;;;;;;;16.47;35.29;99247.72;5234006;26;94596;-73
2024/04/19 11:14:06;;;;;;;5.68;2.38;;;;;;;16.51;35.30;99226.16;5229778;26;94688;-77
2024/04/19 11:16:31;;;;;;;3.17;2.20;;;;;;;16.81;34.27;99232.75;5233426;26;94736;-78
2024/04/19 11:18:57;;;;;;;3.63;2.17;;;;;;;16.96;33.66;99220.16;5225131;26;94701;-78
2024/04/19 11:21:22;;;;;;;3.05;2.00;;;;;;;17.08;33.30;99223.66;5231707;26;94636;-76
2024/04/19 11:23:48;;;;;;;4.43;2.20;;;;;;;15.63;33.42;99213.22;5229225;27;94676;-75
2024/04/19 11:26:17;;;;;;;4.38;2.00;;;;;;;16.64;33.27;99214.63;5226745;27;94471;-76
2024/04/19 11:28:50;;;;;;;4.35;2.30;;;;;;;16.58;35.70;99178.00;5222560;26;100254;-78
2024/04/19 11:31:16;;;;;;;3.72;2.10;;;;;;;17.03;33.32;99194.81;5230020;27;94659;-77
2024/04/19 11:33:42;;;;;;;3.17;2.08;;;;;;;16.57;33.35;99181.63;5225939;27;94746;-82
2024/04/19 11:36:14;;;;;;;4.55;2.72;;;;;;;15.12;34.07;99191.34;5226683;26;94799;-75
2024/04/19 11:38:40;;;;;;;3.38;2.65;;;;;;;15.03;34.09;99194.66;5201309;27;95695;-75